Alliance, OH (44601)

3:20 PM EDT on October 01, 2014 (GMT -0400)
Alliance WX | Change Station
CLOSE
Current Station
Personal Weather Station
Location: Alliance, OH
Elevation: 366 m
Nearby Weather Stations

Elev 366 m 40.92 °N, 81.13 °W | Updated 4 minutes ago

Overcast
Overcast
19.5 °C
Feels Like 19.5 °C
N
0.0
Wind Variable Wind from South
Gusts 3.2 km/h

Today
High -- | Low -- °C
--% Chance of Precip.
Yesterday
High -- | Low -- °C
Precip. -- mm
7:21 AM 7:06 PM
Waxing Crescent, 50% visible
Pressure 1017 hPa
Visibility 12.9 kilometers
Clouds Mostly Cloudy 548 m
Dew Point 15 °C
Humidity 75%
Rainfall 0 mm
Snow Depth Not available.
UV 3 out of 12
Pollen 1.40 out of 12
Air Quality Not available.
Flu Activity Not available.
METAR KCAK 011851Z 16003KT 8SM BKN018 18/12 A3003 RMK AO2 SLP167 T01830122

More Conditions Fewer Conditions

Pressure 1017 hPa
Visibility 12.9 kilometers
Clouds Mostly Cloudy 548 m
Dew Point 15 °C
Humidity 75%
Rainfall 0 mm
Snow Depth Not available.
UV 3 out of 12
Pollen 1.40 out of 12
Air Quality Not available.
Flu Activity Not available.
METAR KCAK 011851Z 16003KT 8SM BKN018 18/12 A3003 RMK AO2 SLP167 T01830122

More Conditions Fewer Conditions

10-Day Weather Forecast

Almanac

Astronomy

Oct. 01, 2014 Rise Set
Actual Time 7:21 AM EDT 7:06 PM EDT
Civil Twilight 6:53 AM EDT 7:33 PM EDT
Nautical Twilight 6:21 AM EDT 8:05 PM EDT
Astronomical Twilight 5:49 AM EDT 8:37 PM EDT
Moon 2:22 PM EDT No Moon Set
Length of Visible Light 12h 40m
Length of Day
11h 45m
Tomorrow will be 2m 41s shorter.
Waxing Crescent, 50% of the Moon is Illuminated
Today
Waxing Crescent
Oct 1
First Quarter
Oct 8
Full
Oct 15
Last Quarter
Oct 23
New

Today's Extremes

State Highs State Lows

Community

WunderPhotos

Upload Photos

1,758,010 photos uploaded!

WunderBlogs® & News

Nearby

Snow Depth

Station Depth Elevation
No new snow has been reported.

Earthquake Activity

City Distance Mag. Time & Date
No recent earthquake activity has been reported nearby.
Minimum magnitude displayed is 2.5.

Coastal Water Temperatures

Place Temperature
No Stations Reporting

Nearby Weather Stations